CheckWX is a tool to help pilots better visualize weather data.  It is not intended as a substitute for an official pre-flight weather briefing.

08:11:04 UTC

KSXS METAR
Shell AHP Heliport
Fort Rucker, Alabama, USA
Current

3 mins ago

KSXS 220808Z AUTO 20003KT 4SM BR OVC003 20/19 A3007 RMK AO2 SLP182
Observed
Feb-22 @ 08:08 UTC
Wind
  • 200° at 3 KTS
Visibility
4 SM
Flight Rules
LIFR
Conditions
Mist
Cloud Levels
  • Overcast at 300' AGL
Temperature
20°C / 68°F
Dewpoint
19°C / 66°F
Humidity
94%
Altimeter
30.07" Hg
Pressure
1018.2 hPa
Previous

23 mins ago

KSXS 220748Z AUTO 21003KT 9SM OVC002 20/19 A3007 RMK AO2 SLP182
Observed
Feb-22 @ 07:48 UTC
Wind
  • 210° at 3 KTS
Visibility
9 SM
Flight Rules
LIFR
Cloud Levels
  • Overcast at 200' AGL
Temperature
20°C / 68°F
Dewpoint
19°C / 66°F
Humidity
94%
Altimeter
30.07" Hg
Pressure
1018.2 hPa
Previous

33 mins ago

KSXS 220738Z AUTO 00000KT 10SM OVC003 20/19 A3007 RMK AO2 SLP182
Observed
Feb-22 @ 07:38 UTC
Visibility
10 SM
Flight Rules
LIFR
Cloud Levels
  • Overcast at 300' AGL
Temperature
20°C / 68°F
Dewpoint
19°C / 66°F
Humidity
94%
Altimeter
30.07" Hg
Pressure
1018.2 hPa